Time;durP1;ratioP1;P1;durP2;ratioP2;P2;SDS_P1;SDS_P2;PMS_P1;PMS_P2;Temp;Humidity;BMP_temperature;BMP_pressure;BME280_temperature;BME280_humidity;BME280_pressure;Samples;Min_cycle;Max_cycle;Signal;HPM_P1;HPM_P2
2022/09/27 00:00:42;;;;;;;4.03;3.53;;;10.60;99.90;;;;;;5063945;28;20035;-76
2022/09/27 00:03:09;;;;;;;5.00;3.80;;;10.60;99.90;;;;;;5065818;28;20024;-76
2022/09/27 00:05:35;;;;;;;5.55;3.65;;;10.70;99.90;;;;;;5065716;28;20201;-77
2022/09/27 00:08:01;;;;;;;6.63;4.00;;;10.70;99.90;;;;;;5065126;28;20681;-76
2022/09/27 00:10:27;;;;;;;4.72;3.50;;;10.70;99.90;;;;;;5058354;28;20107;-76
2022/09/27 00:12:53;;;;;;;4.10;3.35;;;10.70;99.90;;;;;;5037414;28;20028;-75
2022/09/27 00:15:19;;;;;;;5.30;3.90;;;10.60;99.90;;;;;;5067779;28;20029;-76
2022/09/27 00:17:45;;;;;;;5.15;3.42;;;10.60;99.90;;;;;;5064658;28;20386;-76
2022/09/27 00:20:11;;;;;;;6.53;4.28;;;10.60;99.90;;;;;;5072234;28;20118;-77
2022/09/27 00:22:37;;;;;;;7.32;3.45;;;10.60;99.90;;;;;;5065367;28;20029;-76
2022/09/27 00:25:06;;;;;;;4.63;3.50;;;10.60;99.90;;;;;;5065970;28;20032;-76
2022/09/27 00:27:32;;;;;;;6.40;3.90;;;10.60;99.90;;;;;;5064034;28;20044;-76
2022/09/27 00:29:57;;;;;;;4.63;3.85;;;10.60;99.90;;;;;;5062724;28;20038;-76
2022/09/27 00:32:23;;;;;;;4.38;3.45;;;10.60;99.90;;;;;;5063931;28;20067;-76
2022/09/27 00:34:49;;;;;;;6.15;3.97;;;10.60;99.90;;;;;;5065006;28;20025;-75
2022/09/27 00:37:15;;;;;;;8.60;4.28;;;10.60;99.90;;;;;;5062614;28;20021;-76
2022/09/27 00:39:41;;;;;;;6.70;3.97;;;10.60;99.90;;;;;;5068081;28;20078;-76
2022/09/27 00:42:11;;;;;;;4.88;3.80;;;10.60;99.90;;;;;;5072807;28;20024;-76
2022/09/27 00:44:37;;;;;;;6.40;3.90;;;10.60;99.90;;;;;;5072030;28;20028;-76
2022/09/27 00:47:06;;;;;;;4.63;3.65;;;10.60;99.90;;;;;;5067123;28;20044;-76
2022/09/27 00:49:42;;;;;;;4.63;3.33;;;10.50;99.90;;;;;;5061791;28;20063;-76
2022/09/27 00:52:15;;;;;;;9.13;4.13;;;10.60;99.90;;;;;;5068754;28;20368;-76
2022/09/27 00:54:46;;;;;;;4.50;3.80;;;10.60;99.90;;;;;;5066125;28;20036;-76
2022/09/27 00:57:12;;;;;;;6.53;4.40;;;10.60;99.90;;;;;;5065095;28;20439;-76
2022/09/27 00:59:44;;;;;;;4.97;3.75;;;10.60;99.90;;;;;;5072968;28;20069;-76
2022/09/27 01:02:11;;;;;;;4.53;3.53;;;10.60;99.90;;;;;;5073888;28;20043;-77
2022/09/27 01:04:38;;;;;;;8.80;3.90;;;10.60;99.90;;;;;;5069738;28;20021;-77
2022/09/27 01:07:04;;;;;;;6.15;3.45;;;10.60;99.90;;;;;;5071219;28;20043;-76
2022/09/27 01:09:31;;;;;;;6.63;4.13;;;10.60;99.90;;;;;;5076503;28;20039;-77
2022/09/27 01:12:14;;;;;;;5.25;3.33;;;10.60;99.90;;;;;;5077363;28;20500;-76
2022/09/27 01:14:49;;;;;;;4.00;3.55;;;10.60;99.90;;;;;;5067239;28;20028;-77
2022/09/27 01:17:34;;;;;;;5.22;3.92;;;10.60;99.90;;;;;;5070291;28;20090;-77
2022/09/27 01:20:32;;;;;;;8.05;3.65;;;10.60;99.90;;;;;;5067480;28;20032;-77
2022/09/27 01:23:16;;;;;;;4.68;3.30;;;10.60;99.90;;;;;;5073279;28;20051;-76
2022/09/27 01:25:54;;;;;;;3.38;2.85;;;10.60;99.90;;;;;;5078756;28;20103;-76
2022/09/27 01:28:30;;;;;;;5.18;3.47;;;10.60;99.90;;;;;;5089666;28;20103;-77
2022/09/27 01:31:34;;;;;;;4.10;3.10;;;10.60;99.90;;;;;;5069866;28;20238;-77
2022/09/27 01:34:03;;;;;;;4.90;3.20;;;10.60;99.90;;;;;;5033522;28;20037;-77
2022/09/27 01:36:40;;;;;;;4.18;3.28;;;10.60;99.90;;;;;;5070254;28;20044;-76
2022/09/27 01:39:14;;;;;;;4.93;3.10;;;10.50;99.90;;;;;;5068232;28;20020;-76
2022/09/27 01:42:06;;;;;;;4.03;3.20;;;10.50;99.90;;;;;;5070936;28;20048;-77
2022/09/27 01:44:38;;;;;;;4.53;3.00;;;10.60;99.90;;;;;;5072624;28;20492;-77
2022/09/27 01:47:11;;;;;;;5.15;3.22;;;10.60;99.90;;;;;;5070614;28;20034;-77
2022/09/27 01:49:45;;;;;;;4.97;3.47;;;10.60;99.90;;;;;;5072375;28;20042;-76
2022/09/27 01:52:15;;;;;;;4.25;3.20;;;10.50;99.90;;;;;;5066576;28;20063;-76
2022/09/27 01:54:51;;;;;;;4.97;3.10;;;10.50;99.90;;;;;;5067835;28;20048;-77
2022/09/27 01:57:22;;;;;;;3.28;2.75;;;10.60;99.90;;;;;;5063426;28;20036;-77
2022/09/27 02:00:09;;;;;;;4.03;3.05;;;10.60;99.90;;;;;;5066748;28;20051;-76
2022/09/27 02:02:40;;;;;;;5.07;3.30;;;10.60;99.90;;;;;;5066374;28;20035;-76
2022/09/27 02:05:08;;;;;;;5.72;3.33;;;10.60;99.90;;;;;;5065917;28;20078;-76
2022/09/27 02:07:43;;;;;;;3.45;3.15;;;10.60;99.90;;;;;;5067615;28;20029;-76
2022/09/27 02:10:17;;;;;;;4.70;2.92;;;10.60;99.90;;;;;;5053974;28;20032;-76
2022/09/27 02:13:16;;;;;;;2.60;2.33;;;10.50;99.90;;;;;;5071203;28;20043;-76
2022/09/27 02:16:08;;;;;;;4.15;2.90;;;10.50;99.90;;;;;;5065919;28;20033;-76
2022/09/27 02:19:12;;;;;;;3.63;2.85;;;10.50;99.90;;;;;;5063717;28;20028;-76
2022/09/27 02:21:55;;;;;;;3.20;2.58;;;10.50;99.90;;;;;;5066501;28;20186;-77
2022/09/27 02:24:26;;;;;;;3.67;2.63;;;10.50;99.90;;;;;;5069392;28;20094;-76
2022/09/27 02:27:13;;;;;;;4.60;3.17;;;10.50;99.90;;;;;;5080472;28;20059;-77
2022/09/27 02:29:50;;;;;;;3.28;2.70;;;10.50;99.90;;;;;;5072176;28;20060;-77
2022/09/27 02:32:16;;;;;;;4.43;2.70;;;10.50;99.90;;;;;;5068297;28;20025;-77
2022/09/27 02:34:43;;;;;;;4.57;3.20;;;10.50;99.90;;;;;;5072783;28;20078;-76
2022/09/27 02:37:10;;;;;;;3.72;2.90;;;10.50;99.90;;;;;;5063405;28;20100;-76
2022/09/27 02:39:36;;;;;;;5.75;3.72;;;10.50;99.90;;;;;;5068864;28;20629;-77
2022/09/27 02:42:03;;;;;;;4.38;2.92;;;10.50;99.90;;;;;;5070873;28;20154;-77
2022/09/27 02:44:29;;;;;;;3.45;2.97;;;10.50;99.90;;;;;;5067620;28;20029;-77
2022/09/27 02:47:12;;;;;;;5.15;2.80;;;10.50;99.90;;;;;;5066933;28;20084;-76
2022/09/27 02:49:53;;;;;;;3.35;2.92;;;10.50;99.90;;;;;;5062113;28;20043;-77
2022/09/27 02:52:33;;;;;;;2.92;2.60;;;10.50;99.90;;;;;;5066626;28;20029;-77
2022/09/27 02:55:23;;;;;;;3.38;3.00;;;10.50;99.90;;;;;;5065250;28;20039;-77
2022/09/27 02:57:49;;;;;;;4.68;2.90;;;10.50;99.90;;;;;;5066006;28;20396;-77
2022/09/27 03:00:55;;;;;;;6.03;3.60;;;10.50;99.90;;;;;;5048733;28;20028;-77
2022/09/27 03:03:34;;;;;;;4.88;3.22;;;10.50;99.90;;;;;;5043421;28;20067;-77
2022/09/27 03:06:09;;;;;;;5.63;3.20;;;10.50;99.90;;;;;;5067551;28;20039;-77
2022/09/27 03:08:37;;;;;;;4.75;3.00;;;10.50;99.90;;;;;;5066129;28;20116;-77
2022/09/27 03:11:04;;;;;;;5.65;3.90;;;10.60;99.90;;;;;;5065214;28;20040;-77
2022/09/27 03:13:30;;;;;;;3.78;3.17;;;10.60;99.90;;;;;;5063048;28;20028;-77
2022/09/27 03:15:56;;;;;;;5.20;3.47;;;10.60;99.90;;;;;;5067476;28;20037;-77
2022/09/27 03:18:22;;;;;;;4.82;3.63;;;10.60;99.90;;;;;;5063827;28;20028;-77
2022/09/27 03:20:47;;;;;;;5.03;3.47;;;10.60;99.90;;;;;;5066285;28;20017;-77
2022/09/27 03:23:14;;;;;;;4.53;3.20;;;10.60;99.90;;;;;;5064546;28;20531;-77
2022/09/27 03:25:40;;;;;;;5.78;3.65;;;10.50;99.90;;;;;;5069865;28;20098;-77
2022/09/27 03:28:05;;;;;;;5.43;3.72;;;10.50;99.90;;;;;;5061981;28;20028;-77
2022/09/27 03:30:31;;;;;;;4.20;3.50;;;10.60;99.90;;;;;;5067187;28;20538;-77
2022/09/27 03:32:57;;;;;;;5.45;3.92;;;10.60;99.90;;;;;;5068294;28;20041;-76
2022/09/27 03:35:23;;;;;;;5.25;4.10;;;10.50;99.90;;;;;;5065410;28;20028;-76
2022/09/27 03:37:49;;;;;;;5.13;3.70;;;10.60;99.90;;;;;;5065097;28;20081;-77
2022/09/27 03:40:15;;;;;;;4.47;3.72;;;10.50;99.90;;;;;;5076012;28;20021;-77
2022/09/27 03:42:40;;;;;;;5.22;4.00;;;10.50;99.90;;;;;;5072273;28;20025;-77
2022/09/27 03:45:07;;;;;;;4.47;3.85;;;10.50;99.90;;;;;;5067609;28;20646;-77
2022/09/27 03:47:33;;;;;;;5.80;3.63;;;10.50;99.90;;;;;;5067267;28;20055;-77
2022/09/27 03:49:59;;;;;;;5.03;4.05;;;10.50;99.90;;;;;;5067556;28;20036;-77
2022/09/27 03:52:25;;;;;;;5.75;4.53;;;10.50;99.90;;;;;;5071719;28;20033;-76
2022/09/27 03:54:50;;;;;;;5.30;4.13;;;10.60;99.90;;;;;;5071770;28;20035;-77
2022/09/27 03:57:16;;;;;;;5.57;4.03;;;10.50;99.90;;;;;;5063902;28;20108;-77
2022/09/27 03:59:42;;;;;;;4.30;3.90;;;10.50;99.90;;;;;;5064130;28;20024;-77
2022/09/27 04:02:07;;;;;;;5.20;4.10;;;10.60;99.90;;;;;;5061066;28;20040;-77
2022/09/27 04:04:33;;;;;;;7.30;4.10;;;10.60;99.90;;;;;;5066292;28;20445;-76
2022/09/27 04:06:59;;;;;;;6.72;4.00;;;10.60;99.90;;;;;;5061918;28;20020;-77
2022/09/27 04:09:24;;;;;;;6.88;4.70;;;10.60;99.90;;;;;;5067279;28;20561;-77
2022/09/27 04:11:50;;;;;;;6.47;4.38;;;10.60;99.90;;;;;;5067984;28;20028;-77
2022/09/27 04:14:16;;;;;;;6.00;4.63;;;10.60;99.90;;;;;;5074272;28;20071;-77
2022/09/27 04:16:41;;;;;;;6.97;4.32;;;10.60;99.90;;;;;;5066495;28;20040;-77
2022/09/27 04:19:07;;;;;;;7.93;4.70;;;10.60;99.90;;;;;;5065767;28;20382;-76
2022/09/27 04:21:34;;;;;;;6.75;4.90;;;10.60;99.90;;;;;;5065346;28;20104;-76
2022/09/27 04:23:59;;;;;;;5.25;4.45;;;10.60;99.90;;;;;;5066909;28;20096;-77
2022/09/27 04:26:25;;;;;;;6.45;4.38;;;10.70;99.90;;;;;;5066462;28;20374;-76
2022/09/27 04:28:52;;;;;;;6.85;5.28;;;10.70;99.90;;;;;;5068410;28;20020;-76
2022/09/27 04:31:18;;;;;;;5.85;3.97;;;10.70;99.90;;;;;;5062824;28;20033;-76
2022/09/27 04:33:44;;;;;;;5.20;3.90;;;10.70;99.90;;;;;;5061304;28;20751;-77
2022/09/27 04:36:26;;;;;;;10.68;4.47;;;10.70;99.90;;;;;;5060531;28;20028;-76
2022/09/27 04:38:57;;;;;;;7.35;5.00;;;10.70;99.90;;;;;;5063704;28;20110;-77
2022/09/27 04:41:24;;;;;;;6.28;4.38;;;10.70;99.90;;;;;;5061866;28;20029;-76
2022/09/27 04:43:51;;;;;;;7.85;5.30;;;10.70;99.90;;;;;;5064587;28;20028;-77
2022/09/27 04:46:19;;;;;;;6.85;4.90;;;10.70;99.90;;;;;;5059301;28;20052;-76
2022/09/27 04:48:44;;;;;;;7.15;5.00;;;10.70;99.90;;;;;;5062925;28;20085;-77
2022/09/27 04:51:10;;;;;;;8.15;5.57;;;10.70;99.90;;;;;;5063336;28;20040;-77
2022/09/27 04:53:36;;;;;;;10.02;6.53;;;10.70;99.90;;;;;;5065608;28;20031;-77
2022/09/27 04:56:04;;;;;;;11.00;6.88;;;10.70;99.90;;;;;;5064432;28;20278;-77
2022/09/27 04:58:32;;;;;;;14.13;8.35;;;10.70;99.90;;;;;;5061724;28;20028;-77
2022/09/27 05:00:59;;;;;;;13.80;8.38;;;10.70;99.90;;;;;;5068344;28;20542;-75
2022/09/27 05:03:25;;;;;;;12.93;8.80;;;10.70;99.90;;;;;;5061362;28;20420;-76
2022/09/27 05:05:50;;;;;;;13.20;8.77;;;10.70;99.90;;;;;;5061128;28;20050;-77
2022/09/27 05:08:17;;;;;;;15.93;10.52;;;10.70;99.90;;;;;;5064035;28;20114;-76
2022/09/27 05:10:43;;;;;;;19.55;10.82;;;10.70;99.90;;;;;;5065383;28;20031;-77
2022/09/27 05:13:08;;;;;;;18.23;10.80;;;10.70;99.90;;;;;;5056420;28;20029;-76
2022/09/27 05:15:35;;;;;;;23.25;12.00;;;10.80;99.90;;;;;;5061003;28;20037;-77
2022/09/27 05:18:01;;;;;;;21.25;11.55;;;10.70;99.90;;;;;;5064209;28;20106;-77
2022/09/27 05:20:26;;;;;;;20.40;10.77;;;10.70;99.90;;;;;;5063899;28;20093;-76
2022/09/27 05:22:52;;;;;;;20.50;11.27;;;10.70;99.90;;;;;;5066254;28;20489;-75
2022/09/27 05:25:18;;;;;;;22.67;11.80;;;10.70;99.90;;;;;;5081619;28;20593;-76
2022/09/27 05:27:44;;;;;;;27.02;12.32;;;10.80;99.90;;;;;;5066552;28;20384;-77
2022/09/27 05:30:10;;;;;;;19.48;10.77;;;10.80;99.90;;;;;;5060796;28;20021;-75
2022/09/27 05:32:42;;;;;;;19.88;11.13;;;10.70;99.90;;;;;;5074629;28;20087;-77
2022/09/27 05:35:08;;;;;;;24.70;12.30;;;10.70;99.90;;;;;;5067783;28;20025;-77
2022/09/27 05:37:34;;;;;;;22.63;12.23;;;10.80;99.90;;;;;;5069850;28;20090;-76
2022/09/27 05:40:00;;;;;;;25.45;12.68;;;10.80;99.90;;;;;;5064879;28;20029;-76
2022/09/27 05:42:26;;;;;;;27.60;13.63;;;10.80;99.90;;;;;;5075496;28;20479;-76
2022/09/27 05:44:52;;;;;;;25.80;13.27;;;10.70;99.90;;;;;;5080490;28;20027;-78
2022/09/27 05:47:18;;;;;;;30.13;14.55;;;10.80;99.90;;;;;;5055259;28;20292;-77
2022/09/27 05:49:43;;;;;;;27.35;14.15;;;10.70;99.90;;;;;;5065827;28;20059;-76
2022/09/27 05:52:09;;;;;;;34.85;16.15;;;10.80;99.90;;;;;;5057508;28;20068;-76
2022/09/27 05:54:35;;;;;;;29.67;15.98;;;10.70;99.90;;;;;;5063538;28;20036;-76
2022/09/27 05:57:00;;;;;;;34.90;18.45;;;10.80;99.90;;;;;;5063655;28;20119;-76
2022/09/27 05:59:27;;;;;;;35.05;17.80;;;10.80;99.90;;;;;;5067614;28;20024;-76
2022/09/27 06:01:53;;;;;;;38.58;19.45;;;10.80;99.90;;;;;;5070388;28;20480;-77
2022/09/27 06:04:19;;;;;;;43.92;19.90;;;10.80;99.90;;;;;;5061457;28;20082;-76
2022/09/27 06:06:45;;;;;;;44.08;19.52;;;10.80;99.90;;;;;;5067550;28;20614;-77
2022/09/27 06:09:12;;;;;;;37.58;17.75;;;10.80;99.90;;;;;;5091128;28;20016;-75
2022/09/27 06:11:38;;;;;;;15.43;7.63;;;10.80;99.90;;;;;;5071716;28;20064;-76
2022/09/27 06:14:04;;;;;;;44.65;16.73;;;11.30;99.90;;;;;;5062650;28;20111;-77
2022/09/27 06:16:29;;;;;;;33.58;15.27;;;11.70;99.90;;;;;;5063140;28;20033;-76
2022/09/27 06:18:56;;;;;;;33.30;16.30;;;11.40;99.90;;;;;;5066949;28;20021;-77
2022/09/27 06:21:22;;;;;;;31.98;15.95;;;11.20;99.90;;;;;;5061119;28;20029;-76
2022/09/27 06:23:48;;;;;;;33.65;15.57;;;11.10;99.90;;;;;;5063857;28;20024;-77
2022/09/27 06:26:19;;;;;;;32.33;14.32;;;11.00;99.90;;;;;;5064227;28;20035;-76
2022/09/27 06:28:46;;;;;;;29.08;13.18;;;10.90;99.90;;;;;;5062317;28;20145;-77
2022/09/27 06:31:12;;;;;;;27.77;14.00;;;10.80;99.90;;;;;;5042542;28;20056;-77
2022/09/27 06:33:38;;;;;;;26.77;12.75;;;10.80;99.90;;;;;;5059079;28;20027;-77
2022/09/27 06:36:06;;;;;;;32.88;13.15;;;10.90;99.90;;;;;;5066081;28;20020;-77
2022/09/27 06:38:32;;;;;;;25.00;11.38;;;10.80;99.90;;;;;;5066474;28;20489;-77
2022/09/27 06:41:01;;;;;;;20.20;11.05;;;10.80;99.90;;;;;;5067747;28;20876;-77
2022/09/27 06:43:27;;;;;;;21.85;10.15;;;10.80;99.90;;;;;;5070151;28;20055;-76
2022/09/27 06:45:53;;;;;;;15.90;9.23;;;10.80;99.90;;;;;;5063453;28;20024;-78
2022/09/27 06:48:19;;;;;;;17.10;8.60;;;10.80;99.90;;;;;;5064003;28;20043;-78
2022/09/27 06:50:47;;;;;;;15.40;7.97;;;10.70;99.90;;;;;;5066162;28;20571;-76
2022/09/27 06:53:15;;;;;;;16.27;8.05;;;10.80;99.90;;;;;;5053221;28;20043;-76
2022/09/27 06:55:41;;;;;;;10.00;5.82;;;10.80;99.90;;;;;;5060269;28;20111;-77
2022/09/27 07:00:54;;;;;;;11.15;5.18;;;10.80;99.90;;;;;;5061663;28;20032;-74
2022/09/27 07:03:22;;;;;;;8.63;4.93;;;10.80;99.90;;;;;;5068649;28;20399;-77
2022/09/27 07:05:55;;;;;;;8.25;4.32;;;10.70;99.90;;;;;;5064864;28;20056;-77
2022/09/27 07:08:22;;;;;;;9.57;4.35;;;10.80;99.90;;;;;;5069645;28;20033;-78
2022/09/27 07:10:48;;;;;;;6.07;4.00;;;10.80;99.90;;;;;;5071054;28;20622;-78
2022/09/27 07:13:14;;;;;;;6.60;3.50;;;10.80;99.90;;;;;;5069742;28;20028;-78
2022/09/27 07:15:40;;;;;;;6.72;3.83;;;10.70;99.90;;;;;;5069010;28;20518;-77
2022/09/27 07:18:07;;;;;;;5.72;3.60;;;10.70;99.90;;;;;;5075123;28;20457;-77
2022/09/27 07:20:37;;;;;;;4.30;3.17;;;10.70;99.90;;;;;;5069794;28;20266;-76
2022/09/27 07:23:04;;;;;;;3.45;2.45;;;10.70;99.90;;;;;;5072092;28;20024;-77
2022/09/27 07:25:31;;;;;;;6.00;2.08;;;10.70;99.90;;;;;;5073880;28;20051;-77
2022/09/27 07:28:17;;;;;;;5.45;1.90;;;10.70;99.90;;;;;;5057454;28;20020;-78
2022/09/27 07:30:43;;;;;;;5.00;1.50;;;10.70;99.90;;;;;;5069103;28;20029;-77
2022/09/27 07:33:10;;;;;;;6.10;1.25;;;10.60;99.90;;;;;;5067017;28;20040;-77
2022/09/27 07:35:41;;;;;;;2.47;1.05;;;10.70;99.90;;;;;;5070169;28;20483;-77
2022/09/27 07:38:11;;;;;;;5.35;1.85;;;10.60;99.90;;;;;;5068623;28;20515;-78
2022/09/27 07:40:38;;;;;;;6.65;1.55;;;10.60;99.90;;;;;;5069619;28;20033;-77
2022/09/27 07:43:04;;;;;;;3.78;1.17;;;10.70;99.90;;;;;;5068248;28;20031;-77
2022/09/27 07:45:31;;;;;;;1.33;1.00;;;10.70;99.90;;;;;;5069517;28;20099;-78
2022/09/27 07:47:57;;;;;;;4.13;1.38;;;10.80;99.90;;;;;;5068234;28;20027;-78
2022/09/27 07:50:22;;;;;;;2.80;1.50;;;10.90;99.90;;;;;;5067462;28;20024;-75
2022/09/27 07:52:50;;;;;;;3.58;1.52;;;10.90;99.90;;;;;;5081581;28;20102;-76
2022/09/27 07:55:16;;;;;;;5.38;2.05;;;10.90;99.90;;;;;;5082953;28;20029;-76
2022/09/27 07:57:45;;;;;;;4.45;2.38;;;10.90;99.90;;;;;;5089061;28;20032;-77
2022/09/27 08:00:15;;;;;;;8.85;2.85;;;11.00;99.90;;;;;;5082266;28;20122;-76
2022/09/27 08:02:42;;;;;;;6.03;2.80;;;11.00;99.90;;;;;;5080871;28;20046;-77
2022/09/27 08:05:09;;;;;;;3.33;2.35;;;11.00;99.90;;;;;;5080237;28;20032;-77
2022/09/27 08:07:35;;;;;;;4.03;2.17;;;11.00;99.90;;;;;;5083574;28;20108;-76
2022/09/27 08:10:01;;;;;;;4.53;2.22;;;11.00;99.90;;;;;;5079095;28;20469;-77
2022/09/27 08:12:27;;;;;;;4.60;2.42;;;11.00;99.90;;;;;;5073348;28;20043;-77
2022/09/27 08:14:53;;;;;;;4.75;2.40;;;11.00;99.90;;;;;;5070002;28;20587;-78
2022/09/27 08:17:19;;;;;;;6.13;2.70;;;11.00;99.90;;;;;;5070058;28;20028;-76
2022/09/27 08:19:47;;;;;;;5.30;2.53;;;11.00;99.90;;;;;;5067007;28;20122;-78
2022/09/27 08:22:12;;;;;;;4.30;2.20;;;10.90;99.90;;;;;;5071489;28;20025;-77
2022/09/27 08:24:39;;;;;;;5.25;2.63;;;10.90;99.90;;;;;;5071751;28;20020;-77
2022/09/27 08:27:06;;;;;;;5.15;2.00;;;10.90;99.90;;;;;;5073510;28;20039;-78
2022/09/27 08:29:40;;;;;;;4.78;2.00;;;10.90;99.90;;;;;;5073290;28;20028;-77
2022/09/27 08:32:09;;;;;;;8.32;2.67;;;10.80;99.90;;;;;;5070313;28;20036;-77
2022/09/27 08:34:35;;;;;;;5.35;2.30;;;10.90;99.90;;;;;;5065591;28;20043;-76
2022/09/27 08:37:02;;;;;;;4.47;2.28;;;10.90;99.90;;;;;;5084747;28;20397;-76
2022/09/27 08:39:27;;;;;;;8.02;2.28;;;10.90;99.90;;;;;;5076075;28;20123;-78
2022/09/27 08:42:16;;;;;;;6.15;2.47;;;11.00;99.90;;;;;;5074064;28;20056;-78
2022/09/27 08:44:48;;;;;;;4.82;2.70;;;11.00;99.90;;;;;;5068432;28;20503;-77
2022/09/27 08:47:21;;;;;;;5.70;2.25;;;11.00;99.90;;;;;;5072793;28;20039;-77
2022/09/27 08:49:59;;;;;;;7.55;3.97;;;11.00;99.90;;;;;;5066642;28;20021;-76
2022/09/27 08:52:42;;;;;;;6.18;2.40;;;11.00;99.90;;;;;;5068630;28;20071;-77
2022/09/27 08:55:22;;;;;;;3.60;2.28;;;11.00;99.90;;;;;;5065118;28;20055;-77
2022/09/27 08:57:55;;;;;;;7.20;2.75;;;11.00;99.90;;;;;;5064393;28;20024;-77
2022/09/27 09:00:21;;;;;;;5.03;2.10;;;11.00;99.90;;;;;;5065195;28;20025;-77
2022/09/27 09:02:47;;;;;;;4.38;2.33;;;11.00;99.90;;;;;;5072997;28;20036;-77
2022/09/27 09:05:30;;;;;;;3.67;2.63;;;11.00;99.90;;;;;;5069441;28;20820;-77
2022/09/27 09:08:34;;;;;;;4.20;2.60;;;11.00;99.90;;;;;;5083845;28;20044;-77
2022/09/27 09:14:35;;;;;;;2.15;1.60;;;10.90;99.90;;;;;;4984471;28;20034;-77
2022/09/27 09:17:23;;;;;;;2.60;1.70;;;10.80;99.90;;;;;;4975594;28;20145;-77
2022/09/27 09:20:19;;;;;;;3.45;2.00;;;10.90;99.90;;;;;;4994468;28;20057;-77
2022/09/27 09:23:02;;;;;;;4.65;2.47;;;10.90;99.90;;;;;;5008304;28;20142;-77
2022/09/27 09:25:56;;;;;;;3.60;1.83;;;10.90;99.90;;;;;;5009320;28;20046;-76
2022/09/27 09:28:24;;;;;;;2.92;2.00;;;10.90;99.90;;;;;;5006324;28;20108;-77
2022/09/27 09:31:04;;;;;;;3.05;1.90;;;10.90;99.90;;;;;;5011898;28;20022;-78
2022/09/27 09:33:47;;;;;;;4.93;1.60;;;10.90;99.90;;;;;;5010823;28;20030;-76
2022/09/27 09:36:37;;;;;;;4.95;1.60;;;10.90;99.90;;;;;;5009939;28;20042;-77
2022/09/27 09:39:15;;;;;;;2.30;1.60;;;10.90;99.90;;;;;;5008266;28;20187;-77
2022/09/27 09:42:08;;;;;;;4.18;1.38;;;10.90;99.90;;;;;;5035306;28;20040;-76
2022/09/27 09:44:44;;;;;;;5.13;1.73;;;10.90;99.90;;;;;;5061988;28;20028;-77
2022/09/27 09:47:20;;;;;;;2.42;1.52;;;10.90;99.90;;;;;;5069309;28;20302;-77
2022/09/27 09:49:52;;;;;;;4.20;1.77;;;10.90;99.90;;;;;;5069709;28;20016;-77
2022/09/27 09:52:21;;;;;;;2.60;1.55;;;10.90;99.90;;;;;;5074128;28;20025;-77
2022/09/27 09:54:56;;;;;;;1.67;1.40;;;11.00;99.90;;;;;;5073677;28;20547;-77
2022/09/27 09:57:34;;;;;;;2.85;1.45;;;11.00;99.90;;;;;;5072499;28;20115;-78
2022/09/27 10:00:14;;;;;;;6.00;1.60;;;11.00;99.90;;;;;;5070715;28;21074;-78
2022/09/27 10:02:52;;;;;;;2.78;1.63;;;11.00;99.90;;;;;;5070957;28;20021;-77
2022/09/27 10:05:21;;;;;;;3.00;1.40;;;11.00;99.90;;;;;;5069859;28;20031;-78
2022/09/27 10:07:50;;;;;;;5.78;2.03;;;11.00;99.90;;;;;;5072114;28;20036;-76
2022/09/27 10:10:19;;;;;;;3.40;1.70;;;11.00;99.90;;;;;;5073013;28;20032;-77
2022/09/27 10:12:46;;;;;;;3.17;1.85;;;11.10;99.90;;;;;;5077627;28;20036;-79
2022/09/27 10:15:25;;;;;;;3.90;1.42;;;11.30;99.90;;;;;;5075764;28;20042;-80
2022/09/27 10:17:55;;;;;;;1.60;1.20;;;11.20;99.90;;;;;;5071928;28;20051;-79
2022/09/27 10:20:31;;;;;;;1.50;1.05;;;11.10;99.90;;;;;;5075283;28;20024;-80
2022/09/27 10:23:20;;;;;;;2.35;1.00;;;11.10;99.90;;;;;;5075640;28;20028;-78
2022/09/27 10:26:02;;;;;;;2.58;0.98;;;11.10;99.90;;;;;;5081196;28;20028;-79
2022/09/27 10:28:36;;;;;;;3.40;1.02;;;11.10;99.90;;;;;;5072253;28;20032;-77
2022/09/27 10:31:05;;;;;;;3.78;1.30;;;11.20;99.90;;;;;;5070590;28;20021;-81
2022/09/27 10:33:32;;;;;;;3.08;1.30;;;11.20;99.90;;;;;;5073833;28;20082;-80
2022/09/27 10:36:00;;;;;;;3.70;1.08;;;11.20;99.90;;;;;;5072725;28;20204;-76
2022/09/27 10:38:28;;;;;;;1.17;0.98;;;11.20;99.90;;;;;;5070441;28;20048;-80
2022/09/27 10:40:57;;;;;;;2.53;1.10;;;11.30;99.90;;;;;;5072803;28;20032;-79
2022/09/27 10:43:34;;;;;;;1.92;1.00;;;11.30;99.90;;;;;;5077713;28;20139;-79
2022/09/27 10:46:05;;;;;;;1.45;1.13;;;11.30;99.90;;;;;;5076532;28;20040;-80
2022/09/27 10:48:30;;;;;;;;;;;11.40;99.90;;;;;;5079590;28;20051;-78
2022/09/27 10:51:00;;;;;;;4.53;1.83;;;11.40;99.90;;;;;;5079318;28;19920;-82
2022/09/27 10:53:28;;;;;;;5.97;1.60;;;11.30;99.90;;;;;;5078728;28;20085;-81
2022/09/27 10:55:54;;;;;;;3.25;1.15;;;11.40;99.90;;;;;;5074150;28;20024;-80
2022/09/27 10:58:36;;;;;;;3.72;1.40;;;11.50;99.90;;;;;;5073242;28;20036;-81
2022/09/27 11:01:06;;;;;;;2.63;1.50;;;11.50;99.90;;;;;;5075155;28;20032;-79
2022/09/27 11:03:36;;;;;;;1.40;1.15;;;11.50;99.90;;;;;;5075891;28;20485;-77
2022/09/27 11:06:21;;;;;;;2.88;1.40;;;11.40;99.90;;;;;;5076265;28;20032;-81
2022/09/27 11:08:49;;;;;;;3.53;1.30;;;11.40;99.90;;;;;;5069687;28;20020;-80
2022/09/27 11:11:24;;;;;;;2.58;1.52;;;11.40;99.90;;;;;;5069348;28;20500;-80
2022/09/27 11:14:16;;;;;;;1.83;1.40;;;11.40;99.90;;;;;;5076378;28;20028;-79
2022/09/27 11:16:53;;;;;;;3.08;1.40;;;11.40;99.90;;;;;;5072090;28;20080;-79
2022/09/27 11:19:35;;;;;;;2.60;1.30;;;11.50;99.90;;;;;;5074560;28;20039;-79
2022/09/27 11:22:15;;;;;;;1.67;1.40;;;11.50;99.90;;;;;;5073134;28;20194;-80
2022/09/27 11:25:06;;;;;;;1.73;1.20;;;11.50;99.90;;;;;;5075996;28;20048;-80
2022/09/27 11:27:50;;;;;;;1.90;1.17;;;11.50;99.90;;;;;;5090600;28;20024;-79
2022/09/27 11:30:21;;;;;;;3.10;1.27;;;11.50;99.90;;;;;;5067015;28;20032;-79
2022/09/27 11:33:14;;;;;;;3.28;1.23;;;11.60;99.90;;;;;;5058358;28;20032;-77
2022/09/27 11:35:58;;;;;;;2.08;1.40;;;11.50;99.90;;;;;;5065455;28;20032;-80
2022/09/27 11:38:24;;;;;;;2.88;1.40;;;11.60;99.90;;;;;;5069340;28;20035;-79
2022/09/27 11:40:57;;;;;;;162.13;76.13;;;11.70;99.90;;;;;;5066524;28;20404;-78
2022/09/27 11:43:34;;;;;;;2.88;2.20;;;11.80;99.90;;;;;;5072310;28;20095;-80
2022/09/27 11:46:21;;;;;;;2.30;1.00;;;11.90;99.90;;;;;;5074943;28;20027;-79
2022/09/27 11:49:21;;;;;;;2.80;1.00;;;11.90;99.90;;;;;;5071182;28;20471;-79
2022/09/27 11:52:08;;;;;;;1.40;0.90;;;12.00;99.90;;;;;;5078320;28;20064;-79
2022/09/27 11:54:52;;;;;;;2.28;1.27;;;12.00;99.90;;;;;;5072948;28;20032;-78
2022/09/27 11:57:30;;;;;;;1.88;1.10;;;12.00;99.90;;;;;;5054829;28;20102;-76
2022/09/27 12:00:17;;;;;;;5.40;1.55;;;12.00;99.90;;;;;;5062616;28;20311;-79
2022/09/27 12:03:14;;;;;;;3.50;1.30;;;12.00;99.90;;;;;;5079139;28;20031;-76
2022/09/27 12:06:18;;;;;;;5.20;3.20;;;12.20;99.90;;;;;;5075064;28;20095;-77
2022/09/27 12:09:09;;;;;;;2.70;1.30;;;12.20;99.90;;;;;;5086799;28;20076;-77
2022/09/27 12:11:52;;;;;;;1.92;1.00;;;12.20;99.90;;;;;;5087506;28;20024;-77
2022/09/27 12:14:21;;;;;;;2.30;1.23;;;12.10;99.90;;;;;;5087505;28;20052;-79
2022/09/27 12:16:50;;;;;;;2.83;1.30;;;12.20;99.90;;;;;;5090254;28;20029;-77
2022/09/27 12:19:31;;;;;;;1.80;1.13;;;12.20;99.90;;;;;;5080740;28;20586;-80
2022/09/27 12:22:00;;;;;;;1.60;1.10;;;12.20;99.90;;;;;;5084934;28;20017;-76
2022/09/27 12:24:27;;;;;;;1.63;1.13;;;12.30;99.90;;;;;;5080022;28;20029;-80
2022/09/27 12:26:59;;;;;;;1.33;1.00;;;12.20;99.90;;;;;;5077830;28;20424;-76
2022/09/27 12:29:35;;;;;;;2.25;0.80;;;12.20;99.90;;;;;;5082156;28;20033;-77
2022/09/27 12:32:19;;;;;;;1.02;0.70;;;12.20;99.90;;;;;;5078755;28;20032;-80
2022/09/27 12:34:55;;;;;;;2.67;0.80;;;12.30;99.90;;;;;;5068511;28;20024;-77
2022/09/27 12:37:33;;;;;;;1.33;0.70;;;12.30;99.90;;;;;;5072965;28;20035;-80
2022/09/27 12:39:59;;;;;;;3.42;1.45;;;12.20;99.90;;;;;;5073191;28;20088;-76
2022/09/27 12:42:33;;;;;;;2.20;0.85;;;12.30;99.90;;;;;;5071554;28;20033;-80
2022/09/27 12:44:59;;;;;;;6.40;1.63;;;12.30;99.90;;;;;;5065352;28;20032;-75
2022/09/27 12:47:54;;;;;;;2.15;1.08;;;12.30;99.90;;;;;;5076650;28;20164;-79
2022/09/27 12:50:36;;;;;;;4.25;0.80;;;12.20;99.90;;;;;;5073086;28;20048;-78
2022/09/27 12:53:18;;;;;;;1.30;0.70;;;12.20;99.90;;;;;;5074085;28;20450;-79
2022/09/27 12:56:09;;;;;;;3.78;1.48;;;12.20;99.90;;;;;;5073143;28;20036;-79
2022/09/27 12:58:51;;;;;;;0.75;0.70;;;12.10;99.90;;;;;;5072304;28;20031;-77
2022/09/27 13:01:31;;;;;;;2.47;1.00;;;12.00;99.90;;;;;;5063674;28;20259;-79
2022/09/27 13:04:36;;;;;;;2.53;0.80;;;11.90;99.90;;;;;;5071998;28;20028;-78
2022/09/27 13:07:11;;;;;;;0.77;0.70;;;11.90;99.90;;;;;;5069566;28;20028;-80
2022/09/27 13:09:58;;;;;;;2.15;1.05;;;11.90;99.90;;;;;;5071978;28;20075;-80
2022/09/27 13:12:26;;;;;;;1.70;0.60;;;11.80;99.90;;;;;;5072368;28;20036;-78
2022/09/27 13:15:16;;;;;;;1.90;0.80;;;11.80;99.90;;;;;;5069514;28;20051;-80